Terminal Aerodrome Forecast
Issued by NWS Wilmington, OH

Home | Current Version | Previous Version | Text Only | Print | Product List | Glossary On
Versions: 1 2 3 4 5 6 7 8 9 10 11 12 13 14 15 16 17 18 19 20 21 22 23 24
000
FTUS41 KILN 051100
TAFDAY
TAF
KDAY 051137Z 0512/0612 01012KT P6SM OVC100
     FM051800 34009KT P6SM BKN022
     FM060000 34005KT P6SM FEW025
     FM060400 VRB02KT P6SM SKC=

USA.gov is the U.S. government's official web portal to all federal, state and local government web resources and services.